createdAt,value
2023-05-16T00:00:43.477Z,603.00
2023-05-16T00:01:43.520Z,604.00
2023-05-16T00:02:43.575Z,606.00
2023-05-16T00:03:43.582Z,604.00
2023-05-16T00:04:43.602Z,604.00
2023-05-16T00:05:43.636Z,604.00
2023-05-16T00:06:43.672Z,601.00
2023-05-16T00:07:44.640Z,603.00
2023-05-16T00:08:43.705Z,605.00
2023-05-16T00:09:43.797Z,603.00
2023-05-16T00:10:43.814Z,603.00
2023-05-16T00:11:43.840Z,605.00
2023-05-16T00:12:43.920Z,607.00
2023-05-16T00:13:43.921Z,602.00
2023-05-16T00:14:43.956Z,605.00
2023-05-16T00:15:44.024Z,607.00
2023-05-16T00:16:44.073Z,611.00
2023-05-16T00:17:44.154Z,611.00
2023-05-16T00:18:44.131Z,609.00
2023-05-16T00:19:44.157Z,609.00
2023-05-16T00:20:44.199Z,612.00
2023-05-16T00:21:44.286Z,610.00
2023-05-16T00:22:44.289Z,607.00
2023-05-16T00:23:44.309Z,610.00
2023-05-16T00:24:44.350Z,612.00
2023-05-16T00:25:44.403Z,613.00
2023-05-16T00:26:44.452Z,610.00
2023-05-16T00:27:44.494Z,609.00
2023-05-16T00:28:44.516Z,611.00
2023-05-16T00:29:44.567Z,607.00
2023-05-16T00:30:44.625Z,608.00
2023-05-16T00:31:44.636Z,605.00
2023-05-16T00:32:44.741Z,608.00
2023-05-16T00:33:44.763Z,611.00
2023-05-16T00:34:44.863Z,611.00
2023-05-16T00:35:44.832Z,606.00
2023-05-16T00:36:44.841Z,606.00
2023-05-16T00:37:44.905Z,604.00
2023-05-16T00:38:44.911Z,608.00
2023-05-16T00:39:44.964Z,609.00
2023-05-16T00:40:45.015Z,611.00
2023-05-16T00:41:45.034Z,607.00
2023-05-16T00:42:45.091Z,607.00
2023-05-16T00:43:45.128Z,605.00
2023-05-16T00:44:45.160Z,608.00
2023-05-16T00:45:45.178Z,608.00
2023-05-16T00:46:45.296Z,605.00
2023-05-16T00:47:45.349Z,603.00
2023-05-16T00:48:45.312Z,605.00
2023-05-16T00:49:45.349Z,605.00
2023-05-16T00:50:45.369Z,607.00
2023-05-16T00:51:45.412Z,604.00
2023-05-16T00:52:45.456Z,605.00
2023-05-16T00:53:45.477Z,606.00
2023-05-16T00:54:45.517Z,601.00
2023-05-16T00:55:45.569Z,605.00
2023-05-16T00:56:45.598Z,603.00
2023-05-16T00:57:45.619Z,602.00
2023-05-16T00:58:45.675Z,608.00
2023-05-16T00:59:45.705Z,608.00
2023-05-16T01:00:47.899Z,606.00
2023-05-16T01:01:45.777Z,607.00
2023-05-16T01:02:45.853Z,604.00
2023-05-16T01:03:45.844Z,604.00
2023-05-16T01:04:45.790Z,603.00
2023-05-16T01:05:45.803Z,605.00
2023-05-16T01:06:45.797Z,605.00
2023-05-16T01:07:45.802Z,601.00
2023-05-16T01:08:45.844Z,603.00
2023-05-16T01:09:45.825Z,605.00
2023-05-16T01:10:45.846Z,606.00
2023-05-16T01:11:45.851Z,607.00
2023-05-16T01:12:45.894Z,608.00
2023-05-16T01:13:45.872Z,608.00
2023-05-16T01:14:45.903Z,606.00
2023-05-16T01:15:45.935Z,608.00
2023-05-16T01:16:45.918Z,606.00
2023-05-16T01:17:45.926Z,604.00
2023-05-16T01:18:46.011Z,606.00
2023-05-16T01:19:45.975Z,605.00
2023-05-16T01:20:46.001Z,607.00
2023-05-16T01:21:45.991Z,608.00
2023-05-16T01:22:45.988Z,607.00
2023-05-16T01:23:46.035Z,605.00
2023-05-16T01:24:46.024Z,605.00
2023-05-16T01:25:46.007Z,602.00
2023-05-16T01:26:46.046Z,610.00
2023-05-16T01:27:46.055Z,610.00
2023-05-16T01:28:46.059Z,605.00
2023-05-16T01:29:46.066Z,607.00
2023-05-16T01:30:46.069Z,609.00
2023-05-16T01:31:46.182Z,608.00
2023-05-16T01:32:46.129Z,610.00
2023-05-16T01:33:46.152Z,610.00
2023-05-16T01:34:46.122Z,612.00
2023-05-16T01:35:46.156Z,610.00
2023-05-16T01:36:46.131Z,609.00
2023-05-16T01:37:46.167Z,609.00
2023-05-16T01:38:46.197Z,609.00
2023-05-16T01:39:46.183Z,608.00
2023-05-16T01:40:46.191Z,609.00
2023-05-16T01:41:46.227Z,609.00
2023-05-16T01:42:46.229Z,611.00
2023-05-16T01:43:46.211Z,608.00
2023-05-16T01:44:46.385Z,607.00
2023-05-16T01:45:46.230Z,608.00
2023-05-16T01:46:46.295Z,607.00
2023-05-16T01:47:46.280Z,607.00
2023-05-16T01:48:46.310Z,609.00
2023-05-16T01:49:46.265Z,606.00
2023-05-16T01:50:46.333Z,606.00
2023-05-16T01:51:46.282Z,613.00
2023-05-16T01:52:46.294Z,609.00
2023-05-16T01:53:46.309Z,607.00
2023-05-16T01:54:46.315Z,602.00
2023-05-16T01:55:46.331Z,602.00
2023-05-16T01:56:46.336Z,609.00
2023-05-16T01:57:46.351Z,609.00
2023-05-16T01:58:46.335Z,608.00
2023-05-16T01:59:46.364Z,606.00
2023-05-16T02:00:46.404Z,605.00
2023-05-16T02:01:46.359Z,608.00
2023-05-16T02:02:46.433Z,608.00
2023-05-16T02:03:47.237Z,608.00
2023-05-16T02:04:46.428Z,610.00
2023-05-16T02:05:46.425Z,603.00
2023-05-16T02:06:46.393Z,610.00
2023-05-16T02:07:46.438Z,606.00
2023-05-16T02:08:46.421Z,608.00
2023-05-16T02:09:46.460Z,610.00
2023-05-16T02:10:46.452Z,607.00
2023-05-16T02:11:46.468Z,610.00
2023-05-16T02:12:46.550Z,610.00
2023-05-16T02:13:46.578Z,611.00
2023-05-16T02:14:46.627Z,611.00
2023-05-16T02:15:46.674Z,612.00
2023-05-16T02:16:46.897Z,612.00
2023-05-16T02:17:46.827Z,612.00
2023-05-16T02:18:46.865Z,614.00
2023-05-16T02:19:46.884Z,613.00
2023-05-16T02:20:46.923Z,611.00
2023-05-16T02:21:46.968Z,615.00
2023-05-16T02:22:47.008Z,612.00
2023-05-16T02:23:47.093Z,610.00
2023-05-16T02:24:47.132Z,610.00
2023-05-16T02:25:47.284Z,611.00
2023-05-16T02:26:47.259Z,613.00
2023-05-16T02:27:47.266Z,611.00
2023-05-16T02:28:47.329Z,609.00
2023-05-16T02:29:47.400Z,609.00
2023-05-16T02:30:47.533Z,609.00
2023-05-16T02:31:47.492Z,611.00
2023-05-16T02:32:47.598Z,613.00
2023-05-16T02:33:47.612Z,608.00
2023-05-16T02:34:47.643Z,608.00
2023-05-16T02:35:47.731Z,609.00
2023-05-16T02:36:47.732Z,607.00
2023-05-16T02:37:47.814Z,609.00
2023-05-16T02:38:47.847Z,612.00
2023-05-16T02:39:47.918Z,608.00
2023-05-16T02:40:47.961Z,610.00
2023-05-16T02:41:48.036Z,610.00
2023-05-16T02:42:48.080Z,611.00
2023-05-16T02:43:48.120Z,609.00
2023-05-16T02:44:48.163Z,609.00
2023-05-16T02:45:48.271Z,611.00
2023-05-16T02:46:48.288Z,608.00
2023-05-16T02:47:48.350Z,607.00
2023-05-16T02:48:48.404Z,608.00
2023-05-16T02:49:48.467Z,609.00
2023-05-16T02:50:48.477Z,611.00
2023-05-16T02:51:48.530Z,613.00
2023-05-16T02:52:48.564Z,612.00
2023-05-16T02:53:48.625Z,613.00
2023-05-16T02:54:59.843Z,610.00
2023-05-16T02:55:49.695Z,610.00
2023-05-16T02:56:48.674Z,611.00
2023-05-16T02:57:48.694Z,611.00
2023-05-16T02:58:48.721Z,608.00
2023-05-16T02:59:48.708Z,601.00
2023-05-16T03:00:48.709Z,609.00
2023-05-16T03:01:48.831Z,611.00
2023-05-16T03:02:48.851Z,607.00
2023-05-16T03:03:48.836Z,612.00
2023-05-16T03:04:48.772Z,612.00
2023-05-16T03:05:48.764Z,613.00
2023-05-16T03:06:48.753Z,611.00
2023-05-16T03:07:48.784Z,613.00
2023-05-16T03:08:48.766Z,607.00
2023-05-16T03:09:48.797Z,613.00
2023-05-16T03:10:48.817Z,612.00
2023-05-16T03:11:48.833Z,611.00
2023-05-16T03:12:48.867Z,611.00
2023-05-16T03:13:48.887Z,613.00
2023-05-16T03:14:48.942Z,611.00
2023-05-16T03:15:49.012Z,610.00
2023-05-16T03:16:49.136Z,613.00
2023-05-16T03:17:49.153Z,614.00
2023-05-16T03:18:49.160Z,612.00
2023-05-16T03:19:49.174Z,611.00
2023-05-16T03:20:49.230Z,609.00
2023-05-16T03:21:49.285Z,615.00
2023-05-16T03:22:49.321Z,614.00
2023-05-16T03:23:49.382Z,616.00
2023-05-16T03:24:49.553Z,614.00
2023-05-16T03:25:49.518Z,615.00
2023-05-16T03:26:49.539Z,615.00
2023-05-16T03:27:49.580Z,614.00
2023-05-16T03:28:49.656Z,613.00
2023-05-16T03:29:49.704Z,612.00
2023-05-16T03:30:49.760Z,612.00
2023-05-16T03:31:49.807Z,611.00
2023-05-16T03:32:49.904Z,613.00
2023-05-16T03:33:49.892Z,612.00
2023-05-16T03:34:49.939Z,614.00
2023-05-16T03:35:50.014Z,613.00
2023-05-16T03:36:50.049Z,617.00
2023-05-16T03:37:50.092Z,612.00
2023-05-16T03:38:50.138Z,613.00
2023-05-16T03:39:50.179Z,615.00
2023-05-16T03:40:50.254Z,613.00
2023-05-16T03:41:50.303Z,615.00
2023-05-16T03:42:50.329Z,614.00
2023-05-16T03:43:50.408Z,616.00
2023-05-16T03:44:50.447Z,614.00
2023-05-16T03:45:50.575Z,613.00
2023-05-16T03:46:50.584Z,617.00
2023-05-16T03:47:50.655Z,616.00
2023-05-16T03:48:50.673Z,615.00
2023-05-16T03:49:50.729Z,616.00
2023-05-16T03:50:50.779Z,618.00
2023-05-16T03:51:50.822Z,618.00
2023-05-16T03:52:50.889Z,618.00
2023-05-16T03:53:50.932Z,619.00
2023-05-16T03:54:50.988Z,617.00
2023-05-16T03:55:51.063Z,616.00
2023-05-16T03:56:51.074Z,618.00
2023-05-16T03:57:51.117Z,619.00
2023-05-16T03:58:51.182Z,617.00
2023-05-16T03:59:51.277Z,614.00
2023-05-16T04:00:51.303Z,613.00
2023-05-16T04:01:51.367Z,616.00
2023-05-16T04:02:51.667Z,615.00
2023-05-16T04:03:51.455Z,616.00
2023-05-16T04:04:51.523Z,612.00
2023-05-16T04:05:51.609Z,613.00
2023-05-16T04:06:51.606Z,616.00
2023-05-16T04:07:51.683Z,615.00
2023-05-16T04:08:51.757Z,616.00
2023-05-16T04:09:51.781Z,621.00
2023-05-16T04:10:51.838Z,617.00
2023-05-16T04:11:51.876Z,621.00
2023-05-16T04:12:51.950Z,622.00
2023-05-16T04:13:52.069Z,620.00
2023-05-16T04:14:52.055Z,617.00
2023-05-16T04:15:52.118Z,621.00
2023-05-16T04:16:52.194Z,619.00
2023-05-16T04:17:52.222Z,619.00
2023-05-16T04:18:52.374Z,622.00
2023-05-16T04:19:52.369Z,614.00
2023-05-16T04:20:52.368Z,616.00
2023-05-16T04:21:52.435Z,620.00
2023-05-16T04:22:52.531Z,616.00
2023-05-16T04:23:52.558Z,619.00
2023-05-16T04:24:52.605Z,618.00
2023-05-16T04:25:52.668Z,618.00
2023-05-16T04:26:52.752Z,618.00
2023-05-16T04:27:52.768Z,622.00
2023-05-16T04:28:52.882Z,620.00
2023-05-16T04:29:52.905Z,619.00
2023-05-16T04:30:52.962Z,618.00
2023-05-16T04:31:53.038Z,621.00
2023-05-16T04:32:53.131Z,618.00
2023-05-16T04:33:53.159Z,618.00
2023-05-16T04:34:53.177Z,620.00
2023-05-16T04:35:53.236Z,618.00
2023-05-16T04:36:53.283Z,621.00
2023-05-16T04:37:53.368Z,621.00
2023-05-16T04:38:53.443Z,624.00
2023-05-16T04:39:53.488Z,619.00
2023-05-16T04:40:53.529Z,622.00
2023-05-16T04:41:53.579Z,621.00
2023-05-16T04:42:53.651Z,620.00
2023-05-16T04:43:53.708Z,622.00
2023-05-16T04:44:53.764Z,620.00
2023-05-16T04:45:53.920Z,623.00
2023-05-16T04:46:53.934Z,620.00
2023-05-16T04:47:54.008Z,618.00
2023-05-16T04:48:53.984Z,617.00
2023-05-16T04:49:54.022Z,617.00
2023-05-16T04:50:54.122Z,614.00
2023-05-16T04:51:54.150Z,612.00
2023-05-16T04:52:56.310Z,611.00
2023-05-16T04:53:54.237Z,611.00
2023-05-16T04:54:54.286Z,612.00
2023-05-16T04:55:54.322Z,612.00
2023-05-16T04:56:54.329Z,612.00
2023-05-16T04:57:54.375Z,614.00
2023-05-16T04:58:54.440Z,612.00
2023-05-16T04:59:54.466Z,615.00
2023-05-16T05:00:54.522Z,610.00
2023-05-16T05:01:54.590Z,613.00
2023-05-16T05:02:54.636Z,616.00
2023-05-16T05:03:54.612Z,616.00
2023-05-16T05:04:54.839Z,614.00
2023-05-16T05:05:54.701Z,617.00
2023-05-16T05:06:54.737Z,614.00
2023-05-16T05:07:54.765Z,617.00
2023-05-16T05:08:54.789Z,614.00
2023-05-16T05:09:54.862Z,615.00
2023-05-16T05:10:54.919Z,618.00
2023-05-16T05:11:54.958Z,615.00
2023-05-16T05:12:55.003Z,614.00
2023-05-16T05:13:55.034Z,613.00
2023-05-16T05:14:55.086Z,615.00
2023-05-16T05:15:55.138Z,616.00
2023-05-16T05:16:55.193Z,619.00
2023-05-16T05:17:55.252Z,616.00
2023-05-16T05:18:55.293Z,618.00
2023-05-16T05:19:55.280Z,622.00
2023-05-16T05:20:55.309Z,622.00
2023-05-16T05:21:55.331Z,621.00
2023-05-16T05:22:55.443Z,625.00
2023-05-16T05:23:55.434Z,625.00
2023-05-16T05:24:55.468Z,628.00
2023-05-16T05:25:55.542Z,630.00
2023-05-16T05:26:55.568Z,633.00
2023-05-16T05:27:55.611Z,632.00
2023-05-16T05:29:04.559Z,636.00
2023-05-16T05:29:56.667Z,636.00
2023-05-16T05:30:55.715Z,637.00
2023-05-16T05:31:55.755Z,639.00
2023-05-16T05:32:55.743Z,643.00
2023-05-16T05:33:55.736Z,647.00
2023-05-16T05:34:55.759Z,651.00
2023-05-16T05:35:55.781Z,654.00
2023-05-16T05:36:55.813Z,656.00
2023-05-16T05:37:55.832Z,662.00
2023-05-16T05:38:55.850Z,685.00
2023-05-16T05:39:55.830Z,701.00
2023-05-16T05:40:55.835Z,713.00
2023-05-16T05:41:55.887Z,736.00
2023-05-16T05:42:55.978Z,768.00
2023-05-16T05:43:56.006Z,753.00
2023-05-16T05:44:56.148Z,764.00
2023-05-16T05:45:56.283Z,766.00
2023-05-16T05:46:56.266Z,792.00
2023-05-16T05:47:56.373Z,790.00
2023-05-16T05:48:56.391Z,793.00
2023-05-16T05:49:56.482Z,802.00
2023-05-16T05:50:56.531Z,814.00
2023-05-16T05:51:56.603Z,836.00
2023-05-16T05:52:56.657Z,851.00
2023-05-16T05:53:56.693Z,874.00
2023-05-16T05:54:56.771Z,881.00
2023-05-16T05:55:56.850Z,913.00
2023-05-16T05:56:56.906Z,918.00
2023-05-16T05:57:57.183Z,929.00
2023-05-16T05:58:57.068Z,935.00
2023-05-16T05:59:57.089Z,937.00
2023-05-16T06:00:57.226Z,934.00
2023-05-16T06:01:57.259Z,933.00
2023-05-16T06:02:57.350Z,944.00
2023-05-16T06:03:57.285Z,938.00
2023-05-16T06:04:57.384Z,941.00
2023-05-16T06:05:57.548Z,941.00
2023-05-16T06:06:58.065Z,930.00
2023-05-16T06:07:57.990Z,936.00
2023-05-16T06:08:57.556Z,938.00
2023-05-16T06:09:57.578Z,938.00
2023-05-16T06:10:57.671Z,944.00
2023-05-16T06:11:57.658Z,950.00
2023-05-16T06:12:57.712Z,962.00
2023-05-16T06:13:57.782Z,964.00
2023-05-16T06:14:57.831Z,958.00
2023-05-16T06:15:57.845Z,962.00
2023-05-16T06:16:57.925Z,970.00
2023-05-16T06:17:58.034Z,977.00
2023-05-16T06:18:58.044Z,980.00
2023-05-16T06:19:58.000Z,982.00
2023-05-16T06:20:58.157Z,988.00
2023-05-16T06:21:58.095Z,987.00
2023-05-16T06:22:58.150Z,987.00
2023-05-16T06:23:58.151Z,993.00
2023-05-16T06:24:58.174Z,1014.00
2023-05-16T06:25:58.220Z,1017.00
2023-05-16T06:26:58.294Z,1027.00
2023-05-16T06:27:58.390Z,1035.00
2023-05-16T06:28:58.338Z,1032.00
2023-05-16T06:29:58.361Z,1040.00
2023-05-16T06:30:58.494Z,1049.00
2023-05-16T06:31:58.458Z,1054.00
2023-05-16T06:32:58.479Z,1060.00
2023-05-16T06:33:58.477Z,1066.00
2023-05-16T06:34:58.504Z,1061.00
2023-05-16T06:35:58.557Z,1076.00
2023-05-16T06:36:58.516Z,1076.00
2023-05-16T06:37:58.528Z,1086.00
2023-05-16T06:38:58.574Z,1079.00
2023-05-16T06:39:58.618Z,1097.00
2023-05-16T06:40:58.652Z,1107.00
2023-05-16T06:41:58.645Z,1098.00
2023-05-16T06:42:58.698Z,1112.00
2023-05-16T06:43:58.664Z,1120.00
2023-05-16T06:44:58.699Z,1129.00
2023-05-16T06:45:58.738Z,1124.00
2023-05-16T06:46:58.980Z,1118.00
2023-05-16T06:47:58.779Z,1181.00
2023-05-16T06:48:58.848Z,1172.00
2023-05-16T06:49:58.919Z,1176.00
2023-05-16T06:50:58.918Z,1179.00
2023-05-16T06:51:58.887Z,1182.00
2023-05-16T06:52:58.939Z,1170.00
2023-05-16T06:53:59.028Z,1152.00
2023-05-16T06:54:59.095Z,1152.00
2023-05-16T06:55:59.114Z,1154.00
2023-05-16T06:56:59.141Z,1146.00
2023-05-16T06:57:59.129Z,1139.00
2023-05-16T06:58:59.136Z,1141.00
2023-05-16T06:59:59.156Z,1137.00
2023-05-16T07:00:59.233Z,1142.00
2023-05-16T07:01:59.215Z,1146.00
2023-05-16T07:02:59.310Z,1140.00
2023-05-16T07:03:59.335Z,1149.00
2023-05-16T07:04:59.266Z,1149.00
2023-05-16T07:05:59.257Z,1143.00
2023-05-16T07:06:59.259Z,1140.00
2023-05-16T07:07:59.303Z,1143.00
2023-05-16T07:08:59.312Z,1134.00
2023-05-16T07:09:59.326Z,1140.00
2023-05-16T07:10:59.351Z,1135.00
2023-05-16T07:11:59.389Z,1136.00
2023-05-16T07:12:59.393Z,1137.00
2023-05-16T07:13:59.447Z,1140.00
2023-05-16T07:14:59.448Z,1137.00
2023-05-16T07:15:59.484Z,1138.00
2023-05-16T07:16:59.663Z,1135.00
2023-05-16T07:17:59.559Z,1129.00
2023-05-16T07:18:59.605Z,1125.00
2023-05-16T07:19:59.558Z,1126.00
2023-05-16T07:20:59.628Z,1124.00
2023-05-16T07:21:59.607Z,1113.00
2023-05-16T07:22:59.653Z,1117.00
2023-05-16T07:23:59.650Z,1124.00
2023-05-16T07:24:59.654Z,1111.00
2023-05-16T07:25:59.703Z,1120.00
2023-05-16T07:26:59.704Z,1110.00
2023-05-16T07:27:59.730Z,1108.00
2023-05-16T07:28:59.752Z,1101.00
2023-05-16T07:29:59.838Z,1102.00
2023-05-16T07:30:59.800Z,1102.00
2023-05-16T07:31:59.912Z,1104.00
2023-05-16T07:32:59.905Z,1093.00
2023-05-16T07:33:59.882Z,1093.00
2023-05-16T07:34:59.920Z,1090.00
2023-05-16T07:36:12.131Z,1092.00
2023-05-16T07:37:01.004Z,1093.00
2023-05-16T07:37:59.990Z,1092.00
2023-05-16T07:38:59.967Z,1093.00
2023-05-16T07:39:59.999Z,1094.00
2023-05-16T07:41:00.027Z,1112.00
2023-05-16T07:42:00.042Z,1144.00
2023-05-16T07:43:00.056Z,1181.00
2023-05-16T07:44:00.090Z,1204.00
2023-05-16T07:45:00.081Z,1206.00
2023-05-16T07:46:00.088Z,1235.00
2023-05-16T07:47:00.069Z,1205.00
2023-05-16T07:48:00.118Z,1187.00
2023-05-16T07:49:00.080Z,1175.00
2023-05-16T07:50:00.078Z,1176.00
2023-05-16T07:51:00.084Z,1174.00
2023-05-16T07:52:00.080Z,1167.00
2023-05-16T07:53:00.122Z,1169.00
2023-05-16T07:54:00.096Z,1158.00
2023-05-16T07:55:00.079Z,1163.00
2023-05-16T07:56:00.339Z,1153.00
2023-05-16T07:57:00.107Z,1162.00
2023-05-16T07:58:00.125Z,1155.00
2023-05-16T07:59:00.170Z,1154.00
2023-05-16T08:00:00.135Z,1155.00
2023-05-16T08:01:00.112Z,1166.00
2023-05-16T08:02:00.217Z,1161.00
2023-05-16T08:03:00.287Z,1168.00
2023-05-16T08:04:00.175Z,1170.00
2023-05-16T08:05:00.199Z,1155.00
2023-05-16T08:06:00.245Z,1158.00
2023-05-16T08:07:00.153Z,1161.00
2023-05-16T08:08:00.157Z,1162.00
2023-05-16T08:09:00.190Z,1161.00
2023-05-16T08:10:00.185Z,1162.00
2023-05-16T08:11:00.799Z,1148.00
2023-05-16T08:12:00.213Z,1155.00
2023-05-16T08:13:00.225Z,1167.00
2023-05-16T08:14:00.237Z,1156.00
2023-05-16T08:15:00.265Z,1162.00
2023-05-16T08:16:00.313Z,1160.00
2023-05-16T08:17:00.338Z,1172.00
2023-05-16T08:18:00.385Z,1167.00
2023-05-16T08:19:00.466Z,1164.00
2023-05-16T08:20:00.420Z,1169.00
2023-05-16T08:21:00.458Z,1163.00
2023-05-16T08:22:00.484Z,1165.00
2023-05-16T08:23:00.501Z,1165.00
2023-05-16T08:24:00.545Z,1167.00
2023-05-16T08:25:00.653Z,1165.00
2023-05-16T08:26:00.623Z,1167.00
2023-05-16T08:27:00.638Z,1167.00
2023-05-16T08:28:00.684Z,1176.00
2023-05-16T08:29:00.694Z,1176.00
2023-05-16T08:30:00.752Z,1179.00
2023-05-16T08:31:01.378Z,1161.00
2023-05-16T08:32:00.847Z,1170.00
2023-05-16T08:33:00.928Z,1170.00
2023-05-16T08:34:00.886Z,1167.00
2023-05-16T08:35:00.918Z,1180.00
2023-05-16T08:36:00.950Z,1182.00
2023-05-16T08:37:01.120Z,1189.00
2023-05-16T08:38:01.051Z,1190.00
2023-05-16T08:39:01.119Z,1183.00
2023-05-16T08:40:01.177Z,1173.00
2023-05-16T08:41:01.215Z,1180.00
2023-05-16T08:42:01.213Z,1193.00
2023-05-16T08:43:01.271Z,1241.00
2023-05-16T08:44:01.242Z,1258.00
2023-05-16T08:45:01.279Z,1288.00
2023-05-16T08:46:01.302Z,1308.00
2023-05-16T08:47:01.416Z,1317.00
2023-05-16T08:48:01.475Z,1326.00
2023-05-16T08:49:01.420Z,1354.00
2023-05-16T08:50:01.607Z,1352.00
2023-05-16T08:51:01.604Z,1388.00
2023-05-16T08:52:01.659Z,1403.00
2023-05-16T08:53:01.745Z,1401.00
2023-05-16T08:54:01.757Z,1449.00
2023-05-16T08:56:01.786Z,1472.00
2023-05-16T08:57:01.998Z,1498.00
2023-05-16T08:58:01.794Z,1485.00
2023-05-16T08:59:01.797Z,1488.00
2023-05-16T09:00:01.834Z,1479.00
2023-05-16T09:01:01.850Z,1479.00
2023-05-16T09:02:01.835Z,1485.00
2023-05-16T09:03:01.915Z,1466.00
2023-05-16T09:04:01.955Z,1470.00
2023-05-16T09:05:01.835Z,1458.00
2023-05-16T09:06:01.845Z,1453.00
2023-05-16T09:07:01.852Z,1451.00
2023-05-16T09:08:01.894Z,1456.00
2023-05-16T09:09:01.838Z,1463.00
2023-05-16T09:10:01.867Z,1466.00
2023-05-16T09:11:01.890Z,1462.00
2023-05-16T09:12:01.874Z,1450.00
2023-05-16T09:13:01.913Z,1449.00
2023-05-16T09:14:01.901Z,1444.00
2023-05-16T09:15:01.984Z,1433.00
2023-05-16T09:16:01.968Z,1427.00
2023-05-16T09:17:01.974Z,1423.00
2023-05-16T09:18:02.032Z,1423.00
2023-05-16T09:19:02.188Z,1411.00
2023-05-16T09:20:01.954Z,1415.00
2023-05-16T09:21:01.982Z,1395.00
2023-05-16T09:22:01.953Z,1389.00
2023-05-16T09:23:01.958Z,1389.00
2023-05-16T09:24:02.004Z,1388.00
2023-05-16T09:25:02.007Z,1376.00
2023-05-16T09:26:02.015Z,1368.00
2023-05-16T09:27:02.016Z,1364.00
2023-05-16T09:28:03.076Z,1354.00
2023-05-16T09:29:02.085Z,1357.00
2023-05-16T09:30:02.040Z,1353.00
2023-05-16T09:31:02.101Z,1348.00
2023-05-16T09:32:02.047Z,1354.00
2023-05-16T09:33:02.212Z,1346.00
2023-05-16T09:34:02.092Z,1348.00
2023-05-16T09:35:02.091Z,1327.00
2023-05-16T09:36:02.094Z,1337.00
2023-05-16T09:37:02.084Z,1324.00
2023-05-16T09:38:02.130Z,1329.00
2023-05-16T09:39:02.116Z,1310.00
2023-05-16T09:40:02.158Z,1320.00
2023-05-16T09:41:02.138Z,1309.00
2023-05-16T09:42:02.143Z,1317.00
2023-05-16T09:43:02.157Z,1330.00
2023-05-16T09:44:02.126Z,1334.00
2023-05-16T09:45:02.236Z,1334.00
2023-05-16T09:46:02.298Z,1331.00
2023-05-16T09:47:02.205Z,1302.00
2023-05-16T09:48:02.216Z,1319.00
2023-05-16T09:49:02.276Z,1344.00
2023-05-16T09:50:02.350Z,1327.00
2023-05-16T09:51:02.807Z,1322.00
2023-05-16T09:52:02.470Z,1325.00
2023-05-16T09:53:02.592Z,1346.00
2023-05-16T09:54:02.668Z,1344.00
2023-05-16T09:55:02.693Z,1320.00
2023-05-16T09:56:02.779Z,1299.00
2023-05-16T09:57:03.307Z,1292.00
2023-05-16T09:58:02.914Z,1279.00
2023-05-16T09:59:03.001Z,1263.00
2023-05-16T10:00:03.027Z,1255.00
2023-05-16T10:01:03.122Z,1250.00
2023-05-16T10:02:03.126Z,1250.00
2023-05-16T10:03:05.273Z,1243.00
2023-05-16T10:04:03.213Z,1243.00
2023-05-16T10:05:03.838Z,1233.00
2023-05-16T10:06:03.132Z,1233.00
2023-05-16T10:07:03.149Z,1222.00
2023-05-16T10:08:03.186Z,1222.00
2023-05-16T10:09:03.328Z,1220.00
2023-05-16T10:10:03.136Z,1222.00
2023-05-16T10:11:03.186Z,1209.00
2023-05-16T10:12:03.195Z,1213.00
2023-05-16T10:13:03.184Z,1200.00
2023-05-16T10:14:03.540Z,1197.00
2023-05-16T10:15:03.213Z,1210.00
2023-05-16T10:16:03.220Z,1190.00
2023-05-16T10:17:03.392Z,1194.00
2023-05-16T10:18:03.282Z,1189.00
2023-05-16T10:19:03.341Z,1187.00
2023-05-16T10:20:03.271Z,1188.00
2023-05-16T10:21:03.310Z,1187.00
2023-05-16T10:22:03.293Z,1190.00
2023-05-16T10:23:03.264Z,1181.00
2023-05-16T10:24:03.312Z,1187.00
2023-05-16T10:25:03.308Z,1181.00
2023-05-16T10:26:03.337Z,1191.00
2023-05-16T10:27:03.374Z,1194.00
2023-05-16T10:28:03.319Z,1187.00
2023-05-16T10:29:03.358Z,1183.00
2023-05-16T10:30:03.341Z,1184.00
2023-05-16T10:31:03.346Z,1184.00
2023-05-16T10:32:03.400Z,1182.00
2023-05-16T10:33:03.432Z,1181.00
2023-05-16T10:34:03.409Z,1175.00
2023-05-16T10:35:03.490Z,1172.00
2023-05-16T10:36:03.484Z,1179.00
2023-05-16T10:37:03.448Z,1218.00
2023-05-16T10:38:04.568Z,1221.00
2023-05-16T10:39:04.452Z,1222.00
2023-05-16T10:40:03.461Z,1220.00
2023-05-16T10:41:03.486Z,1225.00
2023-05-16T10:42:03.433Z,1232.00
2023-05-16T10:43:03.460Z,1251.00
2023-05-16T10:44:03.466Z,1249.00
2023-05-16T10:46:03.563Z,1263.00
2023-05-16T10:47:03.522Z,1254.00
2023-05-16T10:48:03.716Z,1243.00
2023-05-16T10:49:03.539Z,1201.00
2023-05-16T10:50:03.616Z,1187.00
2023-05-16T10:51:03.746Z,1173.00
2023-05-16T10:52:03.765Z,1186.00
2023-05-16T10:53:03.818Z,1178.00
2023-05-16T10:54:03.807Z,1188.00
2023-05-16T10:55:03.856Z,1154.00
2023-05-16T10:56:03.967Z,1142.00
2023-05-16T10:57:03.950Z,1123.00
2023-05-16T10:58:04.058Z,1120.00
2023-05-16T10:59:04.030Z,1120.00
2023-05-16T11:00:04.051Z,1121.00
2023-05-16T11:01:04.218Z,1106.00
2023-05-16T11:02:04.204Z,1106.00
2023-05-16T11:03:04.322Z,1116.00
2023-05-16T11:04:04.422Z,1103.00
2023-05-16T11:05:07.003Z,1094.00
2023-05-16T11:06:04.412Z,1094.00
2023-05-16T11:07:04.487Z,1083.00
2023-05-16T11:08:04.525Z,1079.00
2023-05-16T11:09:04.364Z,1072.00
2023-05-16T11:10:05.401Z,1093.00
2023-05-16T11:11:05.034Z,1079.00
2023-05-16T11:12:04.404Z,1047.00
2023-05-16T11:13:04.430Z,1109.00
2023-05-16T11:14:04.604Z,1162.00
2023-05-16T11:15:04.397Z,1176.00
2023-05-16T11:16:04.402Z,1179.00
2023-05-16T11:17:04.400Z,1141.00
2023-05-16T11:18:04.423Z,1105.00
2023-05-16T11:19:04.518Z,1089.00
2023-05-16T11:20:04.419Z,1084.00
2023-05-16T11:21:04.995Z,1098.00
2023-05-16T11:22:04.434Z,1083.00
2023-05-16T11:23:04.433Z,1085.00
2023-05-16T11:24:05.376Z,1088.00
2023-05-16T11:25:04.474Z,1077.00
2023-05-16T11:26:04.483Z,1083.00
2023-05-16T11:27:04.466Z,1064.00
2023-05-16T11:28:04.485Z,1133.00
2023-05-16T11:29:04.523Z,1133.00
2023-05-16T11:30:04.544Z,1119.00
2023-05-16T11:31:04.607Z,1128.00
2023-05-16T11:32:04.628Z,1118.00
2023-05-16T11:33:04.569Z,1125.00
2023-05-16T11:34:04.504Z,1110.00
2023-05-16T11:35:04.660Z,1105.00
2023-05-16T11:36:15.071Z,1100.00
2023-05-16T11:37:05.639Z,1101.00
2023-05-16T11:38:04.921Z,1101.00
2023-05-16T11:39:04.611Z,1109.00
2023-05-16T11:40:04.720Z,1130.00
2023-05-16T11:41:04.697Z,1146.00
2023-05-16T11:42:04.641Z,1159.00
2023-05-16T11:43:07.052Z,1151.00
2023-05-16T11:44:04.673Z,1145.00
2023-05-16T11:45:04.682Z,1120.00
2023-05-16T11:46:04.720Z,1102.00
2023-05-16T11:47:04.731Z,1075.00
2023-05-16T11:48:04.741Z,1078.00
2023-05-16T11:49:04.730Z,1094.00
2023-05-16T11:50:04.724Z,1076.00
2023-05-16T11:51:04.718Z,1081.00
2023-05-16T11:52:04.785Z,1088.00
2023-05-16T11:53:04.759Z,1079.00
2023-05-16T11:54:04.688Z,1065.00
2023-05-16T11:55:04.725Z,1045.00
2023-05-16T11:56:04.741Z,1043.00
2023-05-16T11:57:05.024Z,1054.00
2023-05-16T11:58:04.768Z,1045.00
2023-05-16T11:59:04.738Z,1048.00
2023-05-16T12:00:04.737Z,1045.00
2023-05-16T12:01:04.811Z,1021.00
2023-05-16T12:02:04.809Z,1018.00
2023-05-16T12:03:05.265Z,1015.00
2023-05-16T12:04:04.935Z,1013.00
2023-05-16T12:05:04.868Z,1002.00
2023-05-16T12:06:04.796Z,1000.00
2023-05-16T12:07:04.830Z,989.00
2023-05-16T12:08:05.150Z,982.00
2023-05-16T12:09:04.835Z,974.00
2023-05-16T12:10:04.959Z,969.00
2023-05-16T12:11:04.894Z,985.00
2023-05-16T12:12:05.257Z,992.00
2023-05-16T12:13:04.856Z,971.00
2023-05-16T12:14:04.833Z,962.00
2023-05-16T12:15:11.846Z,976.00
2023-05-16T12:16:04.874Z,977.00
2023-05-16T12:17:04.948Z,977.00
2023-05-16T12:18:05.019Z,975.00
2023-05-16T12:19:05.014Z,976.00
2023-05-16T12:20:04.873Z,989.00